sensor_id;sensor_type;location;lat;lon;timestamp;P1;durP1;ratioP1;P2;durP2;ratioP2
52043;SDS011;38053;53.100;6.078;2023-05-07T00:01:52;27.42;;;21.38;;
52043;SDS011;38053;53.100;6.078;2023-05-07T00:04:18;25.27;;;20.02;;
52043;SDS011;38053;53.100;6.078;2023-05-07T00:06:44;27.90;;;20.35;;
52043;SDS011;38053;53.100;6.078;2023-05-07T00:09:09;32.38;;;20.98;;
52043;SDS011;38053;53.100;6.078;2023-05-07T00:11:35;24.13;;;19.08;;
52043;SDS011;38053;53.100;6.078;2023-05-07T00:14:01;31.48;;;20.92;;
52043;SDS011;38053;53.100;6.078;2023-05-07T00:16:27;26.08;;;20.08;;
52043;SDS011;38053;53.100;6.078;2023-05-07T00:18:53;26.58;;;21.25;;
52043;SDS011;38053;53.100;6.078;2023-05-07T00:21:18;36.67;;;20.58;;
52043;SDS011;38053;53.100;6.078;2023-05-07T00:23:44;25.75;;;19.38;;
52043;SDS011;38053;53.100;6.078;2023-05-07T00:26:10;26.60;;;20.77;;
52043;SDS011;38053;53.100;6.078;2023-05-07T00:28:35;26.63;;;20.80;;
52043;SDS011;38053;53.100;6.078;2023-05-07T00:31:01;27.92;;;21.35;;
52043;SDS011;38053;53.100;6.078;2023-05-07T00:33:26;25.00;;;19.05;;
52043;SDS011;38053;53.100;6.078;2023-05-07T00:35:52;29.13;;;20.90;;
52043;SDS011;38053;53.100;6.078;2023-05-07T00:38:19;30.77;;;20.77;;
52043;SDS011;38053;53.100;6.078;2023-05-07T00:40:45;29.25;;;20.98;;
52043;SDS011;38053;53.100;6.078;2023-05-07T00:43:11;32.05;;;21.45;;
52043;SDS011;38053;53.100;6.078;2023-05-07T00:45:37;32.88;;;21.63;;
52043;SDS011;38053;53.100;6.078;2023-05-07T00:48:03;26.38;;;20.25;;
52043;SDS011;38053;53.100;6.078;2023-05-07T00:50:29;32.22;;;21.25;;
52043;SDS011;38053;53.100;6.078;2023-05-07T00:52:56;31.45;;;21.20;;
52043;SDS011;38053;53.100;6.078;2023-05-07T00:55:22;27.48;;;19.92;;
52043;SDS011;38053;53.100;6.078;2023-05-07T00:57:49;28.17;;;19.77;;
52043;SDS011;38053;53.100;6.078;2023-05-07T01:00:16;32.53;;;21.98;;
52043;SDS011;38053;53.100;6.078;2023-05-07T01:02:43;28.48;;;21.70;;
52043;SDS011;38053;53.100;6.078;2023-05-07T01:05:09;30.95;;;21.27;;
52043;SDS011;38053;53.100;6.078;2023-05-07T01:07:41;29.83;;;21.52;;
52043;SDS011;38053;53.100;6.078;2023-05-07T01:10:07;27.80;;;20.85;;
52043;SDS011;38053;53.100;6.078;2023-05-07T01:12:35;29.10;;;21.15;;
52043;SDS011;38053;53.100;6.078;2023-05-07T01:15:03;27.90;;;21.42;;
52043;SDS011;38053;53.100;6.078;2023-05-07T01:17:29;29.73;;;21.65;;
52043;SDS011;38053;53.100;6.078;2023-05-07T01:20:02;32.65;;;21.40;;
52043;SDS011;38053;53.100;6.078;2023-05-07T01:22:30;41.58;;;23.88;;
52043;SDS011;38053;53.100;6.078;2023-05-07T01:25:02;32.42;;;21.67;;
52043;SDS011;38053;53.100;6.078;2023-05-07T01:27:28;28.63;;;20.13;;
52043;SDS011;38053;53.100;6.078;2023-05-07T01:29:54;32.80;;;21.92;;
52043;SDS011;38053;53.100;6.078;2023-05-07T01:35:22;35.58;;;22.67;;
52043;SDS011;38053;53.100;6.078;2023-05-07T01:37:53;33.70;;;22.48;;
52043;SDS011;38053;53.100;6.078;2023-05-07T01:40:20;32.30;;;23.40;;
52043;SDS011;38053;53.100;6.078;2023-05-07T01:42:46;30.85;;;24.48;;
52043;SDS011;38053;53.100;6.078;2023-05-07T01:45:13;39.88;;;25.27;;
52043;SDS011;38053;53.100;6.078;2023-05-07T01:47:39;33.63;;;25.15;;
52043;SDS011;38053;53.100;6.078;2023-05-07T01:50:05;32.42;;;23.67;;
52043;SDS011;38053;53.100;6.078;2023-05-07T01:52:33;36.78;;;25.90;;
52043;SDS011;38053;53.100;6.078;2023-05-07T01:54:59;40.03;;;26.13;;
52043;SDS011;38053;53.100;6.078;2023-05-07T01:57:25;39.33;;;26.00;;
52043;SDS011;38053;53.100;6.078;2023-05-07T01:59:50;40.78;;;27.08;;
52043;SDS011;38053;53.100;6.078;2023-05-07T02:02:16;43.15;;;27.98;;
52043;SDS011;38053;53.100;6.078;2023-05-07T02:04:42;41.45;;;25.17;;
52043;SDS011;38053;53.100;6.078;2023-05-07T02:07:07;35.67;;;26.20;;
52043;SDS011;38053;53.100;6.078;2023-05-07T02:09:33;41.90;;;26.30;;
52043;SDS011;38053;53.100;6.078;2023-05-07T02:11:59;40.22;;;27.17;;
52043;SDS011;38053;53.100;6.078;2023-05-07T02:14:24;37.92;;;27.58;;
52043;SDS011;38053;53.100;6.078;2023-05-07T02:16:51;38.38;;;27.75;;
52043;SDS011;38053;53.100;6.078;2023-05-07T02:19:16;40.35;;;27.52;;
52043;SDS011;38053;53.100;6.078;2023-05-07T02:21:43;36.00;;;27.45;;
52043;SDS011;38053;53.100;6.078;2023-05-07T02:24:08;37.03;;;26.88;;
52043;SDS011;38053;53.100;6.078;2023-05-07T02:26:34;38.42;;;27.92;;
52043;SDS011;38053;53.100;6.078;2023-05-07T02:29:00;39.95;;;28.23;;
52043;SDS011;38053;53.100;6.078;2023-05-07T02:31:26;40.88;;;29.10;;
52043;SDS011;38053;53.100;6.078;2023-05-07T02:33:51;43.33;;;27.80;;
52043;SDS011;38053;53.100;6.078;2023-05-07T02:36:17;38.53;;;29.35;;
52043;SDS011;38053;53.100;6.078;2023-05-07T02:38:42;39.58;;;27.90;;
52043;SDS011;38053;53.100;6.078;2023-05-07T02:41:08;39.30;;;27.02;;
52043;SDS011;38053;53.100;6.078;2023-05-07T02:43:34;36.35;;;27.50;;
52043;SDS011;38053;53.100;6.078;2023-05-07T02:46:00;39.65;;;30.45;;
52043;SDS011;38053;53.100;6.078;2023-05-07T02:48:27;37.85;;;28.58;;
52043;SDS011;38053;53.100;6.078;2023-05-07T02:50:53;35.20;;;27.42;;
52043;SDS011;38053;53.100;6.078;2023-05-07T02:53:19;44.03;;;28.88;;
52043;SDS011;38053;53.100;6.078;2023-05-07T02:55:44;39.38;;;28.65;;
52043;SDS011;38053;53.100;6.078;2023-05-07T02:58:10;39.88;;;28.13;;
52043;SDS011;38053;53.100;6.078;2023-05-07T03:00:36;36.72;;;28.25;;
52043;SDS011;38053;53.100;6.078;2023-05-07T03:03:02;47.30;;;30.75;;
52043;SDS011;38053;53.100;6.078;2023-05-07T03:05:27;39.33;;;29.48;;
52043;SDS011;38053;53.100;6.078;2023-05-07T03:07:53;36.53;;;29.67;;
52043;SDS011;38053;53.100;6.078;2023-05-07T03:10:19;37.30;;;26.92;;
52043;SDS011;38053;53.100;6.078;2023-05-07T03:12:44;43.63;;;29.35;;
52043;SDS011;38053;53.100;6.078;2023-05-07T03:15:10;40.47;;;28.15;;
52043;SDS011;38053;53.100;6.078;2023-05-07T03:17:37;37.00;;;27.13;;
52043;SDS011;38053;53.100;6.078;2023-05-07T03:20:03;39.88;;;28.70;;
52043;SDS011;38053;53.100;6.078;2023-05-07T03:22:30;40.92;;;29.08;;
52043;SDS011;38053;53.100;6.078;2023-05-07T03:24:55;40.97;;;28.92;;
52043;SDS011;38053;53.100;6.078;2023-05-07T03:27:21;38.90;;;27.33;;
52043;SDS011;38053;53.100;6.078;2023-05-07T03:29:47;33.65;;;28.85;;
52043;SDS011;38053;53.100;6.078;2023-05-07T03:32:13;35.40;;;27.08;;
52043;SDS011;38053;53.100;6.078;2023-05-07T03:34:39;38.72;;;28.60;;
52043;SDS011;38053;53.100;6.078;2023-05-07T03:37:05;38.78;;;28.67;;
52043;SDS011;38053;53.100;6.078;2023-05-07T03:39:30;41.10;;;28.05;;
52043;SDS011;38053;53.100;6.078;2023-05-07T03:41:57;42.50;;;29.17;;
52043;SDS011;38053;53.100;6.078;2023-05-07T03:44:23;44.30;;;29.92;;
52043;SDS011;38053;53.100;6.078;2023-05-07T03:46:49;45.17;;;30.08;;
52043;SDS011;38053;53.100;6.078;2023-05-07T03:49:14;42.58;;;31.02;;
52043;SDS011;38053;53.100;6.078;2023-05-07T03:51:40;41.88;;;30.77;;
52043;SDS011;38053;53.100;6.078;2023-05-07T03:54:06;48.03;;;31.20;;
52043;SDS011;38053;53.100;6.078;2023-05-07T03:56:32;39.65;;;32.10;;
52043;SDS011;38053;53.100;6.078;2023-05-07T03:58:58;47.45;;;31.48;;
52043;SDS011;38053;53.100;6.078;2023-05-07T04:01:24;43.67;;;31.02;;
52043;SDS011;38053;53.100;6.078;2023-05-07T04:03:50;46.42;;;29.85;;
52043;SDS011;38053;53.100;6.078;2023-05-07T04:06:16;46.22;;;33.42;;
52043;SDS011;38053;53.100;6.078;2023-05-07T04:08:42;47.55;;;30.88;;
52043;SDS011;38053;53.100;6.078;2023-05-07T04:11:08;54.13;;;33.63;;
52043;SDS011;38053;53.100;6.078;2023-05-07T04:13:34;48.47;;;33.25;;
52043;SDS011;38053;53.100;6.078;2023-05-07T04:16:00;45.67;;;31.52;;
52043;SDS011;38053;53.100;6.078;2023-05-07T04:18:27;46.22;;;34.10;;
52043;SDS011;38053;53.100;6.078;2023-05-07T04:20:53;50.42;;;34.42;;
52043;SDS011;38053;53.100;6.078;2023-05-07T04:23:19;48.33;;;34.13;;
52043;SDS011;38053;53.100;6.078;2023-05-07T04:25:44;47.97;;;35.17;;
52043;SDS011;38053;53.100;6.078;2023-05-07T04:28:10;51.30;;;36.17;;
52043;SDS011;38053;53.100;6.078;2023-05-07T04:30:37;48.03;;;33.28;;
52043;SDS011;38053;53.100;6.078;2023-05-07T04:33:03;53.50;;;34.88;;
52043;SDS011;38053;53.100;6.078;2023-05-07T04:35:29;52.95;;;37.63;;
52043;SDS011;38053;53.100;6.078;2023-05-07T04:37:55;52.85;;;35.35;;
52043;SDS011;38053;53.100;6.078;2023-05-07T04:40:20;53.47;;;37.30;;
52043;SDS011;38053;53.100;6.078;2023-05-07T04:42:46;56.55;;;38.35;;
52043;SDS011;38053;53.100;6.078;2023-05-07T04:45:12;51.17;;;34.65;;
52043;SDS011;38053;53.100;6.078;2023-05-07T04:47:38;59.20;;;38.40;;
52043;SDS011;38053;53.100;6.078;2023-05-07T04:50:04;60.10;;;38.20;;
52043;SDS011;38053;53.100;6.078;2023-05-07T04:52:31;52.72;;;36.47;;
52043;SDS011;38053;53.100;6.078;2023-05-07T04:54:58;54.53;;;35.72;;
52043;SDS011;38053;53.100;6.078;2023-05-07T04:57:25;57.88;;;36.90;;
52043;SDS011;38053;53.100;6.078;2023-05-07T04:59:51;56.40;;;36.60;;
52043;SDS011;38053;53.100;6.078;2023-05-07T05:02:17;53.85;;;37.20;;
52043;SDS011;38053;53.100;6.078;2023-05-07T05:04:43;54.63;;;37.55;;
52043;SDS011;38053;53.100;6.078;2023-05-07T05:07:09;54.90;;;35.38;;
52043;SDS011;38053;53.100;6.078;2023-05-07T05:09:34;56.17;;;37.03;;
52043;SDS011;38053;53.100;6.078;2023-05-07T05:12:00;55.67;;;37.70;;
52043;SDS011;38053;53.100;6.078;2023-05-07T05:14:26;62.47;;;40.00;;
52043;SDS011;38053;53.100;6.078;2023-05-07T05:16:51;54.55;;;36.92;;
52043;SDS011;38053;53.100;6.078;2023-05-07T05:19:17;52.85;;;36.92;;
52043;SDS011;38053;53.100;6.078;2023-05-07T05:21:43;55.63;;;37.10;;
52043;SDS011;38053;53.100;6.078;2023-05-07T05:24:08;53.67;;;36.75;;
52043;SDS011;38053;53.100;6.078;2023-05-07T05:26:34;49.97;;;35.78;;
52043;SDS011;38053;53.100;6.078;2023-05-07T05:29:00;59.63;;;36.63;;
52043;SDS011;38053;53.100;6.078;2023-05-07T05:31:25;55.00;;;36.72;;
52043;SDS011;38053;53.100;6.078;2023-05-07T05:33:51;61.00;;;38.25;;
52043;SDS011;38053;53.100;6.078;2023-05-07T05:36:17;52.15;;;37.70;;
52043;SDS011;38053;53.100;6.078;2023-05-07T05:38:42;48.45;;;35.17;;
52043;SDS011;38053;53.100;6.078;2023-05-07T05:41:09;51.55;;;35.97;;
52043;SDS011;38053;53.100;6.078;2023-05-07T05:43:35;51.88;;;34.78;;
52043;SDS011;38053;53.100;6.078;2023-05-07T05:46:01;51.80;;;34.53;;
52043;SDS011;38053;53.100;6.078;2023-05-07T05:48:28;47.15;;;34.00;;
52043;SDS011;38053;53.100;6.078;2023-05-07T05:50:54;49.88;;;33.65;;
52043;SDS011;38053;53.100;6.078;2023-05-07T05:53:19;50.22;;;35.40;;
52043;SDS011;38053;53.100;6.078;2023-05-07T05:55:45;49.17;;;32.78;;
52043;SDS011;38053;53.100;6.078;2023-05-07T05:58:11;47.70;;;33.35;;
52043;SDS011;38053;53.100;6.078;2023-05-07T06:00:37;48.50;;;34.65;;
52043;SDS011;38053;53.100;6.078;2023-05-07T06:03:03;47.08;;;34.08;;
52043;SDS011;38053;53.100;6.078;2023-05-07T06:05:28;43.85;;;31.13;;
52043;SDS011;38053;53.100;6.078;2023-05-07T06:07:54;42.95;;;32.33;;
52043;SDS011;38053;53.100;6.078;2023-05-07T06:10:20;48.63;;;33.67;;
52043;SDS011;38053;53.100;6.078;2023-05-07T06:12:45;46.58;;;32.70;;
52043;SDS011;38053;53.100;6.078;2023-05-07T06:15:11;46.22;;;31.65;;
52043;SDS011;38053;53.100;6.078;2023-05-07T06:17:37;43.85;;;32.58;;
52043;SDS011;38053;53.100;6.078;2023-05-07T06:20:03;45.33;;;33.13;;
52043;SDS011;38053;53.100;6.078;2023-05-07T06:22:29;44.50;;;30.58;;
52043;SDS011;38053;53.100;6.078;2023-05-07T06:24:55;43.33;;;31.20;;
52043;SDS011;38053;53.100;6.078;2023-05-07T06:27:20;43.72;;;31.25;;
52043;SDS011;38053;53.100;6.078;2023-05-07T06:29:47;42.80;;;31.70;;
52043;SDS011;38053;53.100;6.078;2023-05-07T06:32:13;41.67;;;31.10;;
52043;SDS011;38053;53.100;6.078;2023-05-07T06:34:39;41.83;;;29.55;;
52043;SDS011;38053;53.100;6.078;2023-05-07T06:37:06;42.13;;;31.10;;
52043;SDS011;38053;53.100;6.078;2023-05-07T06:39:32;43.33;;;30.13;;
52043;SDS011;38053;53.100;6.078;2023-05-07T06:41:59;38.53;;;29.15;;
52043;SDS011;38053;53.100;6.078;2023-05-07T06:44:25;38.55;;;29.52;;
52043;SDS011;38053;53.100;6.078;2023-05-07T06:46:51;41.55;;;30.55;;
52043;SDS011;38053;53.100;6.078;2023-05-07T06:49:17;39.53;;;28.98;;
52043;SDS011;38053;53.100;6.078;2023-05-07T06:51:43;35.58;;;28.10;;
52043;SDS011;38053;53.100;6.078;2023-05-07T06:54:08;42.53;;;29.08;;
52043;SDS011;38053;53.100;6.078;2023-05-07T06:56:34;35.45;;;27.95;;
52043;SDS011;38053;53.100;6.078;2023-05-07T06:59:00;40.42;;;30.10;;
52043;SDS011;38053;53.100;6.078;2023-05-07T07:01:26;34.67;;;27.17;;
52043;SDS011;38053;53.100;6.078;2023-05-07T07:03:53;32.70;;;26.83;;
52043;SDS011;38053;53.100;6.078;2023-05-07T07:06:18;35.38;;;26.98;;
52043;SDS011;38053;53.100;6.078;2023-05-07T07:08:44;37.30;;;27.70;;
52043;SDS011;38053;53.100;6.078;2023-05-07T07:11:10;34.50;;;26.38;;
52043;SDS011;38053;53.100;6.078;2023-05-07T07:13:36;33.22;;;25.98;;
52043;SDS011;38053;53.100;6.078;2023-05-07T07:16:02;40.22;;;27.88;;
52043;SDS011;38053;53.100;6.078;2023-05-07T07:18:28;32.38;;;26.65;;
52043;SDS011;38053;53.100;6.078;2023-05-07T07:20:54;32.85;;;24.38;;
52043;SDS011;38053;53.100;6.078;2023-05-07T07:23:19;35.55;;;26.55;;
52043;SDS011;38053;53.100;6.078;2023-05-07T07:25:45;31.95;;;24.83;;
52043;SDS011;38053;53.100;6.078;2023-05-07T07:28:11;34.13;;;26.80;;
52043;SDS011;38053;53.100;6.078;2023-05-07T07:30:37;35.47;;;26.85;;
52043;SDS011;38053;53.100;6.078;2023-05-07T07:33:03;32.72;;;25.23;;
52043;SDS011;38053;53.100;6.078;2023-05-07T07:35:29;34.00;;;25.25;;
52043;SDS011;38053;53.100;6.078;2023-05-07T07:37:55;30.98;;;24.88;;
52043;SDS011;38053;53.100;6.078;2023-05-07T07:40:21;31.35;;;25.17;;
52043;SDS011;38053;53.100;6.078;2023-05-07T07:42:47;31.85;;;25.17;;
52043;SDS011;38053;53.100;6.078;2023-05-07T07:45:13;33.38;;;26.52;;
52043;SDS011;38053;53.100;6.078;2023-05-07T07:47:39;29.20;;;23.70;;
52043;SDS011;38053;53.100;6.078;2023-05-07T07:50:05;33.38;;;24.95;;
52043;SDS011;38053;53.100;6.078;2023-05-07T07:52:32;37.63;;;23.95;;
52043;SDS011;38053;53.100;6.078;2023-05-07T07:54:58;32.45;;;25.73;;
52043;SDS011;38053;53.100;6.078;2023-05-07T07:57:23;32.33;;;25.48;;
52043;SDS011;38053;53.100;6.078;2023-05-07T07:59:49;33.03;;;24.65;;
52043;SDS011;38053;53.100;6.078;2023-05-07T08:02:15;35.47;;;25.25;;
52043;SDS011;38053;53.100;6.078;2023-05-07T08:04:41;32.58;;;24.88;;
52043;SDS011;38053;53.100;6.078;2023-05-07T08:07:08;31.63;;;23.13;;
52043;SDS011;38053;53.100;6.078;2023-05-07T08:09:35;36.00;;;27.38;;
52043;SDS011;38053;53.100;6.078;2023-05-07T08:12:02;31.60;;;23.95;;
52043;SDS011;38053;53.100;6.078;2023-05-07T08:14:28;33.88;;;25.60;;
52043;SDS011;38053;53.100;6.078;2023-05-07T08:16:54;34.22;;;23.95;;
52043;SDS011;38053;53.100;6.078;2023-05-07T08:19:20;35.67;;;24.77;;
52043;SDS011;38053;53.100;6.078;2023-05-07T08:21:46;30.00;;;23.55;;
52043;SDS011;38053;53.100;6.078;2023-05-07T08:24:16;31.55;;;22.90;;
52043;SDS011;38053;53.100;6.078;2023-05-07T08:26:43;28.20;;;23.48;;
52043;SDS011;38053;53.100;6.078;2023-05-07T08:29:09;29.20;;;22.58;;
52043;SDS011;38053;53.100;6.078;2023-05-07T08:31:35;29.92;;;23.40;;
52043;SDS011;38053;53.100;6.078;2023-05-07T08:34:00;29.65;;;23.38;;
52043;SDS011;38053;53.100;6.078;2023-05-07T08:36:26;30.80;;;23.50;;
52043;SDS011;38053;53.100;6.078;2023-05-07T08:38:53;31.20;;;23.88;;
52043;SDS011;38053;53.100;6.078;2023-05-07T08:41:20;29.67;;;24.08;;
52043;SDS011;38053;53.100;6.078;2023-05-07T08:43:49;29.17;;;23.20;;
52043;SDS011;38053;53.100;6.078;2023-05-07T08:46:20;25.23;;;21.48;;
52043;SDS011;38053;53.100;6.078;2023-05-07T08:48:49;25.83;;;22.00;;
52043;SDS011;38053;53.100;6.078;2023-05-07T08:51:17;29.98;;;25.05;;
52043;SDS011;38053;53.100;6.078;2023-05-07T08:53:46;30.15;;;24.05;;
52043;SDS011;38053;53.100;6.078;2023-05-07T08:56:15;29.85;;;23.15;;
52043;SDS011;38053;53.100;6.078;2023-05-07T08:58:42;30.50;;;23.42;;
52043;SDS011;38053;53.100;6.078;2023-05-07T09:01:09;31.88;;;24.15;;
52043;SDS011;38053;53.100;6.078;2023-05-07T09:03:38;29.40;;;24.40;;
52043;SDS011;38053;53.100;6.078;2023-05-07T09:06:05;32.45;;;24.42;;
52043;SDS011;38053;53.100;6.078;2023-05-07T09:08:32;29.70;;;23.67;;
52043;SDS011;38053;53.100;6.078;2023-05-07T09:10:59;29.52;;;24.73;;
52043;SDS011;38053;53.100;6.078;2023-05-07T09:13:25;30.38;;;22.95;;
52043;SDS011;38053;53.100;6.078;2023-05-07T09:15:52;29.48;;;21.80;;
52043;SDS011;38053;53.100;6.078;2023-05-07T09:18:18;30.77;;;23.30;;
52043;SDS011;38053;53.100;6.078;2023-05-07T09:20:44;27.60;;;22.70;;
52043;SDS011;38053;53.100;6.078;2023-05-07T09:23:10;31.33;;;24.27;;
52043;SDS011;38053;53.100;6.078;2023-05-07T09:25:35;31.08;;;23.35;;
52043;SDS011;38053;53.100;6.078;2023-05-07T09:28:02;29.23;;;22.80;;
52043;SDS011;38053;53.100;6.078;2023-05-07T09:30:29;29.48;;;22.52;;
52043;SDS011;38053;53.100;6.078;2023-05-07T09:32:56;29.30;;;24.42;;
52043;SDS011;38053;53.100;6.078;2023-05-07T09:35:23;29.10;;;23.80;;
52043;SDS011;38053;53.100;6.078;2023-05-07T09:37:59;28.70;;;23.08;;
52043;SDS011;38053;53.100;6.078;2023-05-07T09:40:29;27.00;;;22.48;;
52043;SDS011;38053;53.100;6.078;2023-05-07T09:42:56;30.70;;;23.83;;
52043;SDS011;38053;53.100;6.078;2023-05-07T09:45:25;31.10;;;23.65;;
52043;SDS011;38053;53.100;6.078;2023-05-07T09:47:55;26.85;;;22.13;;
52043;SDS011;38053;53.100;6.078;2023-05-07T09:50:25;27.52;;;22.20;;
52043;SDS011;38053;53.100;6.078;2023-05-07T09:52:56;30.40;;;22.75;;
52043;SDS011;38053;53.100;6.078;2023-05-07T09:55:22;36.25;;;24.55;;
52043;SDS011;38053;53.100;6.078;2023-05-07T09:57:52;28.52;;;23.73;;
52043;SDS011;38053;53.100;6.078;2023-05-07T10:00:19;30.98;;;23.15;;
52043;SDS011;38053;53.100;6.078;2023-05-07T10:02:50;31.08;;;22.58;;
52043;SDS011;38053;53.100;6.078;2023-05-07T10:05:21;28.80;;;23.15;;
52043;SDS011;38053;53.100;6.078;2023-05-07T10:07:47;28.92;;;23.88;;
52043;SDS011;38053;53.100;6.078;2023-05-07T10:10:13;31.98;;;24.13;;
52043;SDS011;38053;53.100;6.078;2023-05-07T10:12:41;30.17;;;23.80;;
52043;SDS011;38053;53.100;6.078;2023-05-07T10:15:07;28.02;;;22.77;;
52043;SDS011;38053;53.100;6.078;2023-05-07T10:17:35;32.30;;;24.85;;
52043;SDS011;38053;53.100;6.078;2023-05-07T10:20:03;31.20;;;24.25;;
52043;SDS011;38053;53.100;6.078;2023-05-07T10:22:37;30.40;;;23.95;;
52043;SDS011;38053;53.100;6.078;2023-05-07T10:25:13;29.55;;;22.95;;
52043;SDS011;38053;53.100;6.078;2023-05-07T10:27:57;28.83;;;23.73;;
52043;SDS011;38053;53.100;6.078;2023-05-07T10:33:05;32.55;;;23.92;;
52043;SDS011;38053;53.100;6.078;2023-05-07T10:35:40;31.48;;;24.30;;
52043;SDS011;38053;53.100;6.078;2023-05-07T10:38:08;31.75;;;25.73;;
52043;SDS011;38053;53.100;6.078;2023-05-07T10:40:34;28.63;;;23.05;;
52043;SDS011;38053;53.100;6.078;2023-05-07T10:43:01;30.67;;;23.23;;
52043;SDS011;38053;53.100;6.078;2023-05-07T10:45:31;28.42;;;24.00;;
52043;SDS011;38053;53.100;6.078;2023-05-07T10:48:13;30.50;;;22.67;;
52043;SDS011;38053;53.100;6.078;2023-05-07T10:50:41;29.80;;;23.85;;
52043;SDS011;38053;53.100;6.078;2023-05-07T10:55:52;30.73;;;23.25;;
52043;SDS011;38053;53.100;6.078;2023-05-07T10:58:43;29.60;;;23.50;;
52043;SDS011;38053;53.100;6.078;2023-05-07T11:01:09;26.65;;;22.27;;
52043;SDS011;38053;53.100;6.078;2023-05-07T11:03:37;28.50;;;23.33;;
52043;SDS011;38053;53.100;6.078;2023-05-07T11:06:39;27.40;;;21.70;;
52043;SDS011;38053;53.100;6.078;2023-05-07T11:09:05;25.98;;;21.27;;
52043;SDS011;38053;53.100;6.078;2023-05-07T11:14:09;25.42;;;21.13;;
52043;SDS011;38053;53.100;6.078;2023-05-07T11:16:35;38.55;;;22.23;;
52043;SDS011;38053;53.100;6.078;2023-05-07T11:19:03;23.60;;;20.23;;
52043;SDS011;38053;53.100;6.078;2023-05-07T11:21:39;26.33;;;21.92;;
52043;SDS011;38053;53.100;6.078;2023-05-07T11:24:06;25.23;;;20.05;;
52043;SDS011;38053;53.100;6.078;2023-05-07T11:29:13;27.98;;;20.42;;
52043;SDS011;38053;53.100;6.078;2023-05-07T11:31:43;22.73;;;19.92;;
52043;SDS011;38053;53.100;6.078;2023-05-07T11:34:13;23.67;;;20.07;;
52043;SDS011;38053;53.100;6.078;2023-05-07T11:36:41;23.98;;;19.65;;
52043;SDS011;38053;53.100;6.078;2023-05-07T11:39:25;20.90;;;18.25;;
52043;SDS011;38053;53.100;6.078;2023-05-07T11:41:55;23.30;;;18.70;;
52043;SDS011;38053;53.100;6.078;2023-05-07T11:44:21;20.63;;;18.48;;
52043;SDS011;38053;53.100;6.078;2023-05-07T11:46:46;19.58;;;17.42;;
52043;SDS011;38053;53.100;6.078;2023-05-07T11:49:13;22.17;;;18.67;;
52043;SDS011;38053;53.100;6.078;2023-05-07T11:51:39;21.83;;;16.90;;
52043;SDS011;38053;53.100;6.078;2023-05-07T11:54:07;21.40;;;16.90;;
52043;SDS011;38053;53.100;6.078;2023-05-07T11:56:34;18.98;;;16.40;;
52043;SDS011;38053;53.100;6.078;2023-05-07T11:59:04;18.85;;;16.88;;
52043;SDS011;38053;53.100;6.078;2023-05-07T12:01:30;19.95;;;16.92;;
52043;SDS011;38053;53.100;6.078;2023-05-07T12:03:55;19.52;;;16.00;;
52043;SDS011;38053;53.100;6.078;2023-05-07T12:06:21;24.40;;;16.48;;
52043;SDS011;38053;53.100;6.078;2023-05-07T12:08:47;21.88;;;16.23;;
52043;SDS011;38053;53.100;6.078;2023-05-07T12:11:16;18.90;;;16.42;;
52043;SDS011;38053;53.100;6.078;2023-05-07T12:13:47;22.52;;;17.27;;
52043;SDS011;38053;53.100;6.078;2023-05-07T12:16:13;20.60;;;15.93;;
52043;SDS011;38053;53.100;6.078;2023-05-07T12:18:39;21.08;;;14.77;;
52043;SDS011;38053;53.100;6.078;2023-05-07T12:21:05;17.80;;;15.75;;
52043;SDS011;38053;53.100;6.078;2023-05-07T12:23:33;20.38;;;15.80;;
52043;SDS011;38053;53.100;6.078;2023-05-07T12:26:00;17.08;;;14.15;;
52043;SDS011;38053;53.100;6.078;2023-05-07T12:28:26;16.50;;;14.45;;
52043;SDS011;38053;53.100;6.078;2023-05-07T12:30:52;16.88;;;13.93;;
52043;SDS011;38053;53.100;6.078;2023-05-07T12:33:19;18.10;;;14.85;;
52043;SDS011;38053;53.100;6.078;2023-05-07T12:38:16;15.32;;;13.63;;
52043;SDS011;38053;53.100;6.078;2023-05-07T12:40:49;15.45;;;13.85;;
52043;SDS011;38053;53.100;6.078;2023-05-07T12:43:19;18.85;;;13.95;;
52043;SDS011;38053;53.100;6.078;2023-05-07T12:45:49;16.23;;;14.20;;
52043;SDS011;38053;53.100;6.078;2023-05-07T12:48:15;15.00;;;13.32;;
52043;SDS011;38053;53.100;6.078;2023-05-07T12:50:41;14.02;;;12.07;;
52043;SDS011;38053;53.100;6.078;2023-05-07T12:53:08;15.82;;;13.93;;
52043;SDS011;38053;53.100;6.078;2023-05-07T12:55:46;15.23;;;13.63;;
52043;SDS011;38053;53.100;6.078;2023-05-07T12:58:16;16.97;;;13.00;;
52043;SDS011;38053;53.100;6.078;2023-05-07T13:00:43;14.98;;;11.60;;
52043;SDS011;38053;53.100;6.078;2023-05-07T13:03:10;15.05;;;13.00;;
52043;SDS011;38053;53.100;6.078;2023-05-07T13:05:36;16.42;;;13.93;;
52043;SDS011;38053;53.100;6.078;2023-05-07T13:08:02;14.45;;;12.93;;
52043;SDS011;38053;53.100;6.078;2023-05-07T13:10:28;14.95;;;13.35;;
52043;SDS011;38053;53.100;6.078;2023-05-07T13:12:54;16.42;;;13.15;;
52043;SDS011;38053;53.100;6.078;2023-05-07T13:15:19;17.38;;;14.15;;
52043;SDS011;38053;53.100;6.078;2023-05-07T13:17:46;15.20;;;13.15;;
52043;SDS011;38053;53.100;6.078;2023-05-07T13:20:12;16.90;;;13.15;;
52043;SDS011;38053;53.100;6.078;2023-05-07T13:22:39;15.23;;;13.13;;
52043;SDS011;38053;53.100;6.078;2023-05-07T13:25:05;16.13;;;12.15;;
52043;SDS011;38053;53.100;6.078;2023-05-07T13:27:31;12.15;;;9.90;;
52043;SDS011;38053;53.100;6.078;2023-05-07T13:29:57;13.27;;;10.57;;
52043;SDS011;38053;53.100;6.078;2023-05-07T13:32:23;14.60;;;11.70;;
52043;SDS011;38053;53.100;6.078;2023-05-07T13:34:48;14.18;;;11.30;;
52043;SDS011;38053;53.100;6.078;2023-05-07T13:37:15;15.20;;;12.63;;
52043;SDS011;38053;53.100;6.078;2023-05-07T13:39:41;15.85;;;12.32;;
52043;SDS011;38053;53.100;6.078;2023-05-07T13:42:06;15.68;;;12.93;;
52043;SDS011;38053;53.100;6.078;2023-05-07T13:44:32;14.68;;;13.10;;
52043;SDS011;38053;53.100;6.078;2023-05-07T13:46:58;16.70;;;12.93;;
52043;SDS011;38053;53.100;6.078;2023-05-07T13:49:24;16.60;;;12.77;;
52043;SDS011;38053;53.100;6.078;2023-05-07T13:51:50;16.05;;;12.98;;
52043;SDS011;38053;53.100;6.078;2023-05-07T13:54:16;17.05;;;12.52;;
52043;SDS011;38053;53.100;6.078;2023-05-07T13:56:42;13.45;;;11.77;;
52043;SDS011;38053;53.100;6.078;2023-05-07T13:59:07;14.13;;;12.63;;
52043;SDS011;38053;53.100;6.078;2023-05-07T14:01:33;15.10;;;13.43;;
52043;SDS011;38053;53.100;6.078;2023-05-07T14:03:59;15.35;;;13.00;;
52043;SDS011;38053;53.100;6.078;2023-05-07T14:06:25;18.77;;;15.00;;
52043;SDS011;38053;53.100;6.078;2023-05-07T14:08:51;17.52;;;13.50;;
52043;SDS011;38053;53.100;6.078;2023-05-07T14:11:16;16.75;;;13.95;;
52043;SDS011;38053;53.100;6.078;2023-05-07T14:13:42;16.00;;;14.30;;
52043;SDS011;38053;53.100;6.078;2023-05-07T14:16:08;18.90;;;12.98;;
52043;SDS011;38053;53.100;6.078;2023-05-07T14:18:34;16.10;;;14.40;;
52043;SDS011;38053;53.100;6.078;2023-05-07T14:21:02;15.90;;;13.38;;
52043;SDS011;38053;53.100;6.078;2023-05-07T14:23:28;17.27;;;14.15;;
52043;SDS011;38053;53.100;6.078;2023-05-07T14:25:53;15.50;;;13.07;;
52043;SDS011;38053;53.100;6.078;2023-05-07T14:28:19;15.55;;;13.98;;
52043;SDS011;38053;53.100;6.078;2023-05-07T14:30:46;18.42;;;13.48;;
52043;SDS011;38053;53.100;6.078;2023-05-07T14:33:12;22.15;;;14.82;;
52043;SDS011;38053;53.100;6.078;2023-05-07T14:35:38;16.58;;;14.80;;